Time;durP1;ratioP1;P1;durP2;ratioP2;P2;SDS_P1;SDS_P2;PMS_P1;PMS_P2;Temp;Humidity;BMP_temperature;BMP_pressure;BME280_temperature;BME280_humidity;BME280_pressure;Samples;Min_cycle;Max_cycle;Signal;HPM_P1;HPM_P2
2022/06/13 00:00:31;;;;;;;1.43;1.33;;;17.30;99.90;;;;;;5118639;27;20616;-83
2022/06/13 00:02:58;;;;;;;6.13;2.20;;;17.30;99.90;;;;;;5111072;28;20630;-83
2022/06/13 00:05:25;;;;;;;1.47;1.20;;;17.20;99.90;;;;;;5109804;28;20726;-82
2022/06/13 00:07:53;;;;;;;1.70;1.60;;;17.10;99.90;;;;;;5111796;28;20719;-82
2022/06/13 00:10:22;;;;;;;1.77;1.63;;;16.80;99.90;;;;;;5112098;28;21193;-82
2022/06/13 00:12:49;;;;;;;2.63;1.50;;;16.70;99.90;;;;;;5112048;28;20624;-81
2022/06/13 00:15:17;;;;;;;1.73;1.63;;;16.70;99.90;;;;;;5111508;28;20623;-81
2022/06/13 00:17:45;;;;;;;1.83;1.73;;;16.80;99.90;;;;;;5112059;28;21229;-81
2022/06/13 00:20:14;;;;;;;1.60;1.50;;;16.80;99.90;;;;;;5112594;28;20615;-82
2022/06/13 00:22:42;;;;;;;1.73;1.40;;;16.90;99.90;;;;;;5112442;28;20619;-82
2022/06/13 00:25:12;;;;;;;1.50;1.40;;;16.90;99.90;;;;;;5111843;28;21184;-81
2022/06/13 00:27:39;;;;;;;1.87;1.63;;;16.90;99.90;;;;;;5113205;28;20623;-81
2022/06/13 00:30:09;;;;;;;2.50;1.77;;;16.90;99.90;;;;;;5112784;28;20608;-82
2022/06/13 00:32:37;;;;;;;1.87;1.43;;;16.90;99.90;;;;;;5111332;28;20680;-81
2022/06/13 00:35:06;;;;;;;2.07;1.67;;;16.90;99.90;;;;;;5108540;28;20824;-82
2022/06/13 00:37:33;;;;;;;1.73;1.63;;;17.10;99.90;;;;;;5109241;28;20655;-82
2022/06/13 00:40:00;;;;;;;1.93;1.60;;;17.20;99.90;;;;;;5104359;28;20632;-81
2022/06/13 00:42:29;;;;;;;1.93;1.73;;;17.20;99.90;;;;;;5110316;28;21201;-81
2022/06/13 00:45:15;;;;;;;1.80;1.63;;;17.10;99.90;;;;;;5110847;28;21281;-82
2022/06/13 00:47:45;;;;;;;1.80;1.70;;;17.10;99.90;;;;;;5109178;28;20641;-82
2022/06/13 00:50:18;;;;;;;1.70;1.60;;;17.00;99.90;;;;;;5108915;28;20631;-82
2022/06/13 00:52:50;;;;;;;1.03;1.00;;;17.00;99.90;;;;;;5110126;28;21186;-82
2022/06/13 00:55:22;;;;;;;1.90;1.80;;;17.10;99.90;;;;;;5109685;28;20619;-81
2022/06/13 00:57:51;;;;;;;1.70;1.57;;;17.20;99.90;;;;;;5109843;28;20688;-82
2022/06/13 01:00:19;;;;;;;2.13;1.70;;;17.20;99.90;;;;;;5108334;28;20608;-81
2022/06/13 01:02:50;;;;;;;2.00;1.70;;;17.20;99.90;;;;;;5109000;28;20619;-82
2022/06/13 01:05:21;;;;;;;2.20;1.70;;;17.30;99.90;;;;;;5107719;28;21260;-82
2022/06/13 01:07:49;;;;;;;1.60;1.50;;;17.30;99.90;;;;;;5109531;28;20627;-82
2022/06/13 01:13:06;;;;;;;1.93;1.70;;;17.20;99.90;;;;;;5108698;28;20636;-82
2022/06/13 01:16:04;;;;;;;2.70;1.70;;;17.20;99.90;;;;;;5108819;28;20632;-82
2022/06/13 01:18:56;;;;;;;2.10;1.90;;;17.20;99.90;;;;;;5104210;28;20688;-82
2022/06/13 01:21:37;;;;;;;1.60;1.50;;;17.10;99.90;;;;;;5108879;28;21166;-82
2022/06/13 01:24:38;;;;;;;1.50;1.43;;;17.10;99.90;;;;;;5109436;28;20750;-81
2022/06/13 01:27:41;;;;;;;1.83;1.73;;;17.00;99.90;;;;;;5108192;28;21029;-82
2022/06/13 01:30:33;;;;;;;1.10;1.10;;;17.10;99.90;;;;;;5109575;28;20726;-81
2022/06/13 01:33:08;;;;;;;2.50;2.27;;;17.00;99.90;;;;;;5110176;28;20648;-82
2022/06/13 01:35:48;;;;;;;1.63;1.50;;;17.00;99.90;;;;;;5107324;28;20619;-82
2022/06/13 01:38:37;;;;;;;6.93;2.37;;;17.00;99.90;;;;;;5108440;28;20728;-82
2022/06/13 01:41:12;;;;;;;1.53;1.37;;;16.90;99.90;;;;;;5108641;28;20631;-82
2022/06/13 01:43:53;;;;;;;1.57;1.47;;;17.00;99.90;;;;;;5108805;28;20656;-83
2022/06/13 01:46:31;;;;;;;2.73;1.20;;;17.00;99.90;;;;;;5090326;28;20799;-82
2022/06/13 01:49:07;;;;;;;1.50;1.40;;;17.00;99.90;;;;;;5105477;28;20623;-82
2022/06/13 01:51:41;;;;;;;2.03;1.70;;;16.90;99.90;;;;;;5107842;28;20735;-82
2022/06/13 01:54:21;;;;;;;1.60;1.50;;;17.00;99.90;;;;;;5108172;28;20646;-82
2022/06/13 01:56:57;;;;;;;2.77;1.70;;;17.00;99.90;;;;;;5107656;28;20637;-82
2022/06/13 01:59:29;;;;;;;1.77;1.53;;;17.00;99.90;;;;;;5107805;28;20651;-82
2022/06/13 02:02:04;;;;;;;2.00;1.90;;;17.10;99.90;;;;;;5107720;28;20718;-82
2022/06/13 02:04:38;;;;;;;1.77;1.67;;;17.00;99.90;;;;;;5108900;28;20628;-83
2022/06/13 02:07:12;;;;;;;1.80;1.70;;;17.10;99.90;;;;;;5107558;28;20702;-83
2022/06/13 02:09:42;;;;;;;2.00;1.57;;;17.10;99.90;;;;;;5102331;28;20611;-82
2022/06/13 02:12:13;;;;;;;2.23;2.03;;;17.10;99.90;;;;;;5108289;28;20619;-83
2022/06/13 02:14:44;;;;;;;1.60;1.50;;;17.00;99.90;;;;;;5108396;28;20729;-83
2022/06/13 02:17:14;;;;;;;1.70;1.60;;;17.10;99.90;;;;;;5106763;28;20981;-83
2022/06/13 02:19:46;;;;;;;1.73;1.63;;;17.00;99.90;;;;;;5107960;28;20656;-83
2022/06/13 02:22:21;;;;;;;1.97;1.87;;;17.00;99.90;;;;;;5107896;28;20616;-83
2022/06/13 02:24:58;;;;;;;3.10;1.83;;;17.00;99.90;;;;;;5108073;28;21192;-83
2022/06/13 02:27:28;;;;;;;2.37;1.67;;;16.90;99.90;;;;;;5106972;28;20698;-83
2022/06/13 02:29:58;;;;;;;2.10;1.83;;;17.00;99.90;;;;;;5108598;28;20607;-83
2022/06/13 02:32:32;;;;;;;2.03;1.83;;;16.90;99.90;;;;;;5108194;28;20711;-83
2022/06/13 02:35:06;;;;;;;1.47;1.37;;;16.90;99.90;;;;;;5107986;28;20688;-82
2022/06/13 02:37:38;;;;;;;1.63;1.53;;;16.90;99.90;;;;;;5107317;28;20620;-83
2022/06/13 02:40:10;;;;;;;2.03;1.93;;;16.90;99.90;;;;;;5106823;28;20723;-83
2022/06/13 02:42:42;;;;;;;1.50;1.40;;;16.90;99.90;;;;;;5107879;28;20635;-82
2022/06/13 02:45:14;;;;;;;1.40;1.20;;;16.80;99.90;;;;;;5107387;28;20623;-83
2022/06/13 02:47:46;;;;;;;1.77;1.47;;;16.80;99.90;;;;;;5107616;28;20727;-83
2022/06/13 02:50:19;;;;;;;1.40;1.30;;;16.80;99.90;;;;;;5087711;28;20613;-83
2022/06/13 02:52:53;;;;;;;1.50;1.40;;;16.70;99.90;;;;;;5087770;28;20615;-83
2022/06/13 02:55:20;;;;;;;1.00;1.00;;;16.70;99.90;;;;;;5099286;28;20627;-83
2022/06/13 02:58:00;;;;;;;1.13;1.03;;;16.60;99.90;;;;;;5109549;28;20615;-83
2022/06/13 03:00:42;;;;;;;1.30;1.20;;;16.40;99.90;;;;;;5111747;28;20659;-84
2022/06/13 03:03:16;;;;;;;1.00;1.00;;;16.40;99.90;;;;;;5111742;28;20659;-83
2022/06/13 03:05:52;;;;;;;1.00;1.00;;;16.30;99.90;;;;;;5111158;28;20651;-84
2022/06/13 03:08:49;;;;;;;1.70;1.50;;;16.30;99.90;;;;;;5111414;28;20623;-84
2022/06/13 03:11:32;;;;;;;1.60;1.50;;;16.30;99.90;;;;;;5107725;27;20652;-83
2022/06/13 03:14:15;;;;;;;2.40;1.30;;;16.30;99.90;;;;;;5111793;28;20680;-83
2022/06/13 03:16:50;;;;;;;1.30;1.20;;;16.30;99.90;;;;;;5110556;28;20667;-83
2022/06/13 03:19:25;;;;;;;1.37;0.90;;;16.20;99.90;;;;;;5110088;28;20753;-83
2022/06/13 03:22:01;;;;;;;1.50;1.40;;;16.30;99.90;;;;;;5109769;28;20604;-83
2022/06/13 03:24:36;;;;;;;1.43;1.33;;;16.20;99.90;;;;;;5109756;28;21270;-83
2022/06/13 03:27:07;;;;;;;1.40;1.30;;;16.30;99.90;;;;;;5109880;28;20651;-83
2022/06/13 03:29:38;;;;;;;1.17;1.07;;;16.20;99.90;;;;;;5110973;28;20688;-83
2022/06/13 03:32:09;;;;;;;1.00;0.90;;;16.10;99.90;;;;;;5110239;28;20719;-83
2022/06/13 03:34:40;;;;;;;1.50;1.40;;;15.90;99.90;;;;;;5110976;28;20623;-83
2022/06/13 03:37:12;;;;;;;1.57;1.47;;;15.90;99.90;;;;;;5110067;28;20658;-83
2022/06/13 03:39:43;;;;;;;2.70;1.90;;;15.90;99.90;;;;;;5104218;28;20722;-83
2022/06/13 03:42:13;;;;;;;1.50;1.07;;;15.80;99.90;;;;;;5103557;28;20628;-83
2022/06/13 03:44:47;;;;;;;0.90;0.90;;;15.70;99.90;;;;;;5104643;28;20832;-83
2022/06/13 03:47:20;;;;;;;1.60;1.50;;;15.70;99.90;;;;;;5089904;28;20736;-83
2022/06/13 03:49:54;;;;;;;1.37;1.20;;;15.60;99.90;;;;;;5101187;28;20722;-83
2022/06/13 03:52:22;;;;;;;1.23;1.07;;;15.50;99.90;;;;;;5110522;28;20622;-83
2022/06/13 03:54:55;;;;;;;1.50;1.40;;;15.50;99.90;;;;;;5110536;28;21248;-83
2022/06/13 03:57:27;;;;;;;2.30;1.20;;;15.50;99.90;;;;;;5109889;27;20650;-83
2022/06/13 03:59:57;;;;;;;1.37;1.27;;;15.50;99.90;;;;;;5110230;28;20659;-83
2022/06/13 04:02:27;;;;;;;1.50;1.40;;;15.40;99.90;;;;;;5104720;28;20621;-83
2022/06/13 04:04:55;;;;;;;1.07;1.07;;;15.40;99.90;;;;;;5095775;28;20681;-83
2022/06/13 04:07:25;;;;;;;2.17;1.97;;;15.30;99.90;;;;;;5109342;28;20622;-83
2022/06/13 04:09:56;;;;;;;2.77;1.80;;;15.20;99.90;;;;;;5108798;28;21262;-83
2022/06/13 04:12:44;;;;;;;1.50;1.40;;;15.20;99.90;;;;;;5109556;28;20663;-83
2022/06/13 04:15:28;;;;;;;1.33;1.23;;;15.30;99.90;;;;;;5109478;28;20680;-84
2022/06/13 04:18:04;;;;;;;3.07;1.70;;;15.20;99.90;;;;;;5109767;28;20632;-83
2022/06/13 04:20:42;;;;;;;1.57;1.47;;;15.20;99.90;;;;;;5110590;28;20725;-83
2022/06/13 04:23:16;;;;;;;2.23;1.73;;;15.20;99.90;;;;;;5110043;28;20643;-83
2022/06/13 04:25:48;;;;;;;2.00;1.80;;;15.50;99.90;;;;;;5109197;28;20627;-83
2022/06/13 04:28:23;;;;;;;1.63;1.53;;;15.00;99.90;;;;;;5109033;28;20719;-84
2022/06/13 04:30:53;;;;;;;2.00;1.73;;;15.00;99.90;;;;;;5109451;28;21380;-84
2022/06/13 04:33:24;;;;;;;2.47;2.27;;;15.00;99.90;;;;;;5109792;28;20677;-84
2022/06/13 04:35:52;;;;;;;3.60;2.10;;;15.00;99.90;;;;;;5108895;28;20692;-83
2022/06/13 04:38:23;;;;;;;1.40;1.30;;;15.10;99.90;;;;;;5105414;28;21202;-83
2022/06/13 04:40:55;;;;;;;1.80;1.70;;;15.00;99.90;;;;;;5098176;28;20621;-83
2022/06/13 04:43:27;;;;;;;2.50;2.30;;;15.00;99.90;;;;;;5108409;28;20685;-84
2022/06/13 04:45:57;;;;;;;1.40;1.30;;;15.10;99.90;;;;;;5108790;28;20677;-83
2022/06/13 04:48:25;;;;;;;1.80;1.70;;;15.20;99.90;;;;;;5109320;28;20719;-83
2022/06/13 04:50:54;;;;;;;2.10;1.90;;;15.20;99.90;;;;;;5109069;28;21059;-82
2022/06/13 04:53:26;;;;;;;2.23;2.03;;;15.30;99.90;;;;;;5109998;28;20620;-83
2022/06/13 04:55:55;;;;;;;1.43;1.33;;;15.40;99.90;;;;;;5110296;28;20612;-83
2022/06/13 04:58:26;;;;;;;1.60;1.50;;;15.40;99.90;;;;;;5093601;28;20677;-83
2022/06/13 05:00:59;;;;;;;1.90;1.80;;;15.20;99.90;;;;;;5109329;28;21281;-83
2022/06/13 05:03:30;;;;;;;1.60;1.50;;;15.00;99.90;;;;;;5108666;28;20719;-83
2022/06/13 05:06:01;;;;;;;1.00;1.00;;;14.90;99.90;;;;;;5108649;28;20624;-83
2022/06/13 05:08:34;;;;;;;2.00;1.90;;;14.90;99.90;;;;;;5109322;28;20651;-83
2022/06/13 05:11:08;;;;;;;1.60;1.50;;;15.00;99.90;;;;;;5109262;28;20632;-83
2022/06/13 05:13:35;;;;;;;1.40;1.30;;;15.10;99.90;;;;;;5109116;28;20635;-83
2022/06/13 05:16:14;;;;;;;3.53;1.50;;;15.20;99.90;;;;;;5107834;28;20619;-83
2022/06/13 05:19:09;;;;;;;1.33;1.23;;;15.20;99.90;;;;;;5102742;28;20740;-83
2022/06/13 05:21:51;;;;;;;3.83;2.60;;;15.20;99.90;;;;;;5092336;28;20612;-83
2022/06/13 05:24:36;;;;;;;1.60;1.50;;;15.20;99.90;;;;;;5108804;28;20632;-83
2022/06/13 05:27:06;;;;;;;5.67;2.03;;;15.10;99.90;;;;;;5107832;28;20619;-83
2022/06/13 05:29:33;;;;;;;2.77;1.87;;;15.00;99.90;;;;;;5107731;28;20655;-82
2022/06/13 05:32:00;;;;;;;1.80;1.70;;;15.00;99.90;;;;;;5107142;28;20647;-83
2022/06/13 05:34:32;;;;;;;1.90;1.77;;;15.10;99.90;;;;;;5106938;28;21190;-83
2022/06/13 05:37:00;;;;;;;2.50;1.97;;;15.20;99.90;;;;;;5107748;28;20648;-83
2022/06/13 05:39:28;;;;;;;1.50;1.40;;;15.20;99.90;;;;;;5108440;28;20754;-82
2022/06/13 05:41:55;;;;;;;5.73;1.67;;;15.30;99.90;;;;;;5108322;28;20616;-82
2022/06/13 05:44:22;;;;;;;1.80;1.33;;;15.40;99.90;;;;;;5108558;28;20647;-83
2022/06/13 05:46:50;;;;;;;1.43;1.30;;;15.30;99.90;;;;;;5107723;28;20723;-84
2022/06/13 05:49:17;;;;;;;2.57;2.37;;;15.40;99.90;;;;;;5100069;28;20655;-84
2022/06/13 05:51:44;;;;;;;2.67;2.47;;;15.40;99.90;;;;;;5090474;28;20638;-84
2022/06/13 05:54:11;;;;;;;1.93;1.83;;;15.40;99.90;;;;;;5105274;28;20615;-84
2022/06/13 05:56:40;;;;;;;1.50;1.40;;;15.40;99.90;;;;;;5105787;28;21193;-84
2022/06/13 05:59:08;;;;;;;2.00;1.67;;;15.30;99.90;;;;;;5103000;28;20698;-83
2022/06/13 06:01:36;;;;;;;1.40;1.30;;;15.30;99.90;;;;;;5107801;28;20620;-84
2022/06/13 06:04:03;;;;;;;1.70;1.43;;;15.40;99.90;;;;;;5107023;28;20632;-84
2022/06/13 06:06:32;;;;;;;1.70;1.60;;;15.50;99.90;;;;;;5105695;28;21100;-83
2022/06/13 06:09:00;;;;;;;1.73;1.63;;;15.50;99.90;;;;;;5101349;28;21282;-83
2022/06/13 06:11:30;;;;;;;1.40;1.30;;;15.40;99.90;;;;;;5107439;28;20726;-85
2022/06/13 06:13:58;;;;;;;1.10;1.00;;;15.40;99.90;;;;;;5107127;28;21150;-83
2022/06/13 06:16:28;;;;;;;1.43;1.33;;;15.60;99.90;;;;;;5105987;28;20688;-83
2022/06/13 06:18:56;;;;;;;2.10;1.50;;;15.60;99.90;;;;;;5107280;28;21224;-84
2022/06/13 06:21:23;;;;;;;1.70;1.60;;;15.70;99.90;;;;;;5106538;28;20628;-84
2022/06/13 06:23:50;;;;;;;3.27;1.83;;;15.70;99.90;;;;;;5107430;28;20644;-84
2022/06/13 06:26:20;;;;;;;1.60;1.50;;;15.70;99.90;;;;;;5107152;28;20693;-83
2022/06/13 06:28:47;;;;;;;3.80;1.70;;;15.70;99.90;;;;;;5107226;28;20620;-84
2022/06/13 06:31:15;;;;;;;0.87;0.87;;;15.70;99.90;;;;;;5107661;28;20619;-84
2022/06/13 06:33:42;;;;;;;1.50;1.40;;;15.70;99.90;;;;;;5111310;28;20968;-85
2022/06/13 06:36:12;;;;;;;1.20;1.07;;;15.80;99.90;;;;;;5111100;28;20688;-84
2022/06/13 06:38:39;;;;;;;1.87;1.70;;;15.90;99.90;;;;;;5101162;28;20632;-84
2022/06/13 06:41:06;;;;;;;1.67;1.57;;;15.90;99.90;;;;;;5111349;28;20688;-84
2022/06/13 06:43:33;;;;;;;1.50;1.40;;;16.00;99.90;;;;;;5111050;28;20619;-85
2022/06/13 06:46:00;;;;;;;1.80;1.70;;;16.00;99.90;;;;;;5110368;28;20723;-85
2022/06/13 06:48:28;;;;;;;1.90;1.17;;;15.90;99.90;;;;;;5111586;28;20693;-85
2022/06/13 06:50:56;;;;;;;1.60;1.50;;;16.00;99.90;;;;;;5110417;28;20674;-84
2022/06/13 06:53:27;;;;;;;1.63;1.53;;;15.90;99.90;;;;;;5111533;28;20620;-85
2022/06/13 07:01:24;;;;;;;1.00;0.90;;;16.40;99.60;;;;;;5091718;28;20631;-84
2022/06/13 07:03:52;;;;;;;0.90;0.90;;;16.40;99.90;;;;;;5091304;28;21177;-86
2022/06/13 07:06:19;;;;;;;1.00;1.00;;;16.40;99.20;;;;;;5102868;28;20680;-85
2022/06/13 07:08:46;;;;;;;1.23;1.07;;;16.30;99.20;;;;;;5111122;28;20714;-85
2022/06/13 07:14:03;;;;;;;1.90;1.80;;;16.60;98.50;;;;;;5111035;28;20619;-85
2022/06/13 07:16:30;;;;;;;2.57;1.77;;;16.70;98.30;;;;;;5110405;28;20628;-84
2022/06/13 07:18:58;;;;;;;1.77;1.67;;;16.60;97.90;;;;;;5105014;28;20639;-85
2022/06/13 07:21:26;;;;;;;0.70;0.70;;;16.70;97.90;;;;;;5110006;28;20685;-84
2022/06/13 07:23:53;;;;;;;1.53;1.43;;;16.70;97.70;;;;;;5110284;28;20674;-84
2022/06/13 07:26:19;;;;;;;1.87;1.77;;;16.70;98.20;;;;;;5110577;28;20651;-86
2022/06/13 07:28:46;;;;;;;1.67;1.30;;;16.80;98.10;;;;;;5109195;28;20673;-84
2022/06/13 07:31:19;;;;;;;2.73;1.23;;;16.80;96.70;;;;;;5109646;28;20619;-84
2022/06/13 07:33:46;;;;;;;1.90;1.73;;;17.00;97.80;;;;;;5110728;28;20624;-86
2022/06/13 07:36:15;;;;;;;1.10;1.07;;;17.10;97.90;;;;;;5109692;28;20615;-85
2022/06/13 07:38:42;;;;;;;1.60;1.50;;;17.20;97.20;;;;;;5109912;28;20676;-85
2022/06/13 07:41:15;;;;;;;2.93;1.60;;;17.20;96.10;;;;;;5098917;28;20713;-85
2022/06/13 07:43:43;;;;;;;1.77;1.67;;;17.10;96.30;;;;;;5101860;28;20637;-84
2022/06/13 07:46:12;;;;;;;1.47;1.37;;;17.20;96.70;;;;;;5109191;28;20650;-86
2022/06/13 07:48:39;;;;;;;1.77;1.67;;;17.30;96.70;;;;;;5110750;27;20616;-84
2022/06/13 07:51:06;;;;;;;1.63;1.53;;;17.50;96.00;;;;;;5110684;28;20714;-85
2022/06/13 07:53:35;;;;;;;1.50;1.40;;;17.40;95.10;;;;;;5110667;28;20624;-84
2022/06/13 07:56:03;;;;;;;1.20;1.20;;;17.70;95.10;;;;;;5108166;28;21055;-85
2022/06/13 07:58:33;;;;;;;1.80;1.33;;;17.60;94.60;;;;;;5106540;27;20616;-86
2022/06/13 08:01:01;;;;;;;1.30;1.20;;;17.70;95.20;;;;;;5109556;27;20740;-85
2022/06/13 08:03:31;;;;;;;1.27;1.17;;;17.70;94.60;;;;;;5110565;28;20603;-85
2022/06/13 08:05:58;;;;;;;1.63;1.53;;;17.90;94.40;;;;;;5109178;28;20632;-85
2022/06/13 08:08:26;;;;;;;1.60;1.40;;;18.20;93.80;;;;;;5109379;28;20620;-85
2022/06/13 08:10:58;;;;;;;1.43;1.20;;;18.20;93.20;;;;;;5109918;28;20624;-85
2022/06/13 08:13:26;;;;;;;1.40;1.30;;;18.00;93.30;;;;;;5099095;28;21016;-85
2022/06/13 08:15:59;;;;;;;1.10;1.00;;;17.90;91.60;;;;;;5095619;28;21202;-85
2022/06/13 08:18:50;;;;;;;1.13;1.03;;;18.20;93.90;;;;;;5110936;28;20603;-86
2022/06/13 08:24:11;;;;;;;2.00;1.20;;;18.20;93.20;;;;;;5102056;27;20639;-86
2022/06/13 08:27:14;;;;;;;1.10;1.00;;;18.40;93.20;;;;;;5109148;28;20616;-86
2022/06/13 08:30:23;;;;;;;1.10;1.10;;;18.60;93.50;;;;;;5089096;28;20696;-85
2022/06/13 08:33:24;;;;;;;1.30;1.20;;;18.60;92.60;;;;;;5090912;28;20992;-86
2022/06/13 08:53:57;;;;;;;1.27;1.27;;;18.80;90.70;;;;;;4889234;29;21196;-86
2022/06/13 08:56:28;;;;;;;2.10;1.27;;;19.00;91.30;;;;;;5086699;28;20624;-86
2022/06/13 08:59:22;;;;;;;1.43;1.33;;;19.40;91.30;;;;;;5108664;28;20608;-87
2022/06/13 09:01:49;;;;;;;1.60;1.50;;;19.60;90.90;;;;;;5095107;28;20707;-87
2022/06/13 09:04:21;;;;;;;2.20;1.70;;;19.50;90.60;;;;;;5108703;28;20626;-86
2022/06/13 09:06:53;;;;;;;1.80;1.20;;;19.70;88.80;;;;;;5107521;28;20681;-87
2022/06/13 09:09:27;;;;;;;1.63;1.53;;;19.60;89.30;;;;;;5108719;28;20655;-86
2022/06/13 09:11:59;;;;;;;1.30;1.20;;;19.60;90.20;;;;;;5107908;28;20615;-86
2022/06/13 09:14:33;;;;;;;1.40;1.30;;;19.40;87.40;;;;;;5088819;28;20628;-87
2022/06/13 09:17:09;;;;;;;1.60;1.50;;;19.40;88.70;;;;;;5091003;28;20611;-86
2022/06/13 09:19:42;;;;;;;1.60;1.50;;;19.30;86.60;;;;;;5108044;28;20619;-87
2022/06/13 09:22:17;;;;;;;1.30;1.27;;;19.70;88.40;;;;;;5108204;28;20681;-86
2022/06/13 09:24:52;;;;;;;2.13;1.70;;;20.00;90.20;;;;;;5107117;28;20632;-85
2022/06/13 09:27:25;;;;;;;1.47;1.33;;;20.10;85.50;;;;;;5107630;28;20626;-87
2022/06/13 09:29:59;;;;;;;2.30;1.63;;;19.90;85.70;;;;;;5108698;28;21197;-86
2022/06/13 09:32:33;;;;;;;1.70;1.60;;;19.50;86.60;;;;;;5108032;28;20779;-87
2022/06/13 09:35:05;;;;;;;1.17;1.10;;;19.70;87.90;;;;;;5087803;28;20620;-87
2022/06/13 09:37:38;;;;;;;1.80;1.70;;;20.10;88.60;;;;;;5105322;28;21002;-86
2022/06/13 09:40:07;;;;;;;1.73;1.63;;;20.40;84.70;;;;;;5108317;28;20648;-87
2022/06/13 09:42:46;;;;;;;1.90;1.40;;;20.50;82.50;;;;;;5108009;28;20634;-86
2022/06/13 09:45:34;;;;;;;1.50;1.40;;;20.40;81.90;;;;;;5107125;28;20677;-86
2022/06/13 09:48:11;;;;;;;2.00;1.43;;;20.40;81.30;;;;;;5096906;28;20704;-86
2022/06/13 09:50:45;;;;;;;0.97;0.97;;;20.40;78.30;;;;;;5106552;28;20630;-86
2022/06/13 09:53:17;;;;;;;1.20;1.10;;;20.40;80.60;;;;;;5108256;28;21087;-87
2022/06/13 09:55:48;;;;;;;1.53;1.43;;;20.40;80.70;;;;;;5106771;28;20664;-87
2022/06/13 09:58:25;;;;;;;1.10;1.00;;;20.50;77.60;;;;;;5104904;28;20684;-86
2022/06/13 10:01:08;;;;;;;1.30;1.20;;;20.70;81.10;;;;;;5092598;28;20651;-87
2022/06/13 10:03:50;;;;;;;1.60;1.50;;;20.80;75.60;;;;;;5107762;28;20623;-87
2022/06/13 10:06:25;;;;;;;1.20;1.10;;;21.10;76.70;;;;;;5107294;28;21153;-86
2022/06/13 10:09:12;;;;;;;2.17;1.50;;;21.40;73.10;;;;;;5112165;28;20656;-86
2022/06/13 10:11:46;;;;;;;0.70;0.70;;;21.60;70.60;;;;;;5112580;28;20640;-86
2022/06/13 10:14:29;;;;;;;0.80;0.63;;;21.50;70.10;;;;;;5111654;28;20642;-86
2022/06/13 10:17:10;;;;;;;3.43;1.47;;;21.60;68.60;;;;;;5109670;28;20685;-87
2022/06/13 10:19:46;;;;;;;0.60;0.60;;;21.70;68.30;;;;;;5112328;28;20635;-87
2022/06/13 10:22:15;;;;;;;0.83;0.83;;;21.80;65.20;;;;;;5111625;28;21020;-87
2022/06/13 10:24:58;;;;;;;1.10;1.00;;;22.10;67.20;;;;;;5111133;28;20666;-88
2022/06/13 10:27:33;;;;;;;1.20;1.10;;;22.00;67.00;;;;;;5110842;28;20624;-86
2022/06/13 10:30:18;;;;;;;1.10;1.00;;;22.30;70.50;;;;;;5111594;28;21169;-86
2022/06/13 10:32:59;;;;;;;1.47;1.37;;;22.40;70.30;;;;;;5110639;28;20647;-86
2022/06/13 10:35:33;;;;;;;1.17;1.13;;;22.30;66.50;;;;;;5110688;28;20620;-86
2022/06/13 10:38:12;;;;;;;1.00;1.00;;;22.60;68.40;;;;;;5111472;28;20642;-86
2022/06/13 10:40:41;;;;;;;1.40;1.30;;;22.60;66.60;;;;;;5111983;28;21216;-87
2022/06/13 10:43:09;;;;;;;1.47;1.20;;;22.50;66.10;;;;;;5109982;28;20700;-86
2022/06/13 10:45:36;;;;;;;0.77;0.77;;;22.80;67.20;;;;;;5109641;28;21165;-86
2022/06/13 10:48:11;;;;;;;1.30;1.20;;;22.70;64.10;;;;;;5111304;28;20647;-87
2022/06/13 10:50:44;;;;;;;1.60;1.20;;;22.90;64.60;;;;;;5111231;28;20676;-86
2022/06/13 10:53:17;;;;;;;0.87;0.87;;;22.70;63.20;;;;;;5090899;28;20609;-87
2022/06/13 10:55:46;;;;;;;2.10;1.40;;;23.00;59.80;;;;;;5093749;28;20645;-87
2022/06/13 10:58:18;;;;;;;1.50;1.27;;;23.20;64.60;;;;;;5091746;28;21244;-86
2022/06/13 11:01:05;;;;;;;1.17;1.07;;;23.60;62.40;;;;;;5110284;28;20740;-86
2022/06/13 11:03:33;;;;;;;1.50;1.40;;;24.10;60.90;;;;;;5109786;28;20719;-87
2022/06/13 11:06:03;;;;;;;1.80;1.70;;;23.70;60.50;;;;;;5110421;28;20623;-86
2022/06/13 11:08:31;;;;;;;1.40;1.30;;;23.50;58.40;;;;;;5110270;28;20992;-87
2022/06/13 11:11:00;;;;;;;2.77;1.60;;;23.40;59.30;;;;;;5111091;28;21230;-86
2022/06/13 11:13:30;;;;;;;0.97;0.97;;;23.70;60.30;;;;;;5111167;28;20612;-86
2022/06/13 11:24:31;;;;;;;0.80;0.80;;;23.80;61.40;;;;;;5110186;28;20672;-87
2022/06/13 11:29:43;;;;;;;1.40;1.13;;;24.00;56.10;;;;;;5110881;28;20723;-86
2022/06/13 11:32:21;;;;;;;1.53;1.43;;;24.60;57.40;;;;;;5110734;28;20608;-87
2022/06/13 11:34:49;;;;;;;2.83;1.10;;;24.70;55.90;;;;;;5089840;28;20655;-88
2022/06/13 11:37:21;;;;;;;1.90;1.80;;;25.10;57.50;;;;;;5090204;28;20685;-88
2022/06/13 11:39:49;;;;;;;1.27;1.27;;;25.10;57.30;;;;;;5106141;28;20719;-87
2022/06/13 11:42:20;;;;;;;1.40;1.00;;;25.50;57.50;;;;;;5106344;28;20795;-86
2022/06/13 11:44:52;;;;;;;1.60;1.50;;;24.50;54.90;;;;;;5111236;28;20874;-88
2022/06/13 11:47:21;;;;;;;1.20;1.20;;;24.60;57.40;;;;;;5109838;28;20628;-88
2022/06/13 11:49:53;;;;;;;1.50;1.40;;;24.50;56.10;;;;;;5101791;28;20727;-88
2022/06/13 11:55:29;;;;;;;1.90;1.37;;;25.80;55.60;;;;;;5107080;28;20737;-89
2022/06/13 11:57:59;;;;;;;1.63;1.20;;;25.80;54.40;;;;;;5090604;28;20612;-87
2022/06/13 12:00:33;;;;;;;1.47;1.37;;;25.80;55.30;;;;;;5109972;28;20615;-86
2022/06/13 12:03:08;;;;;;;1.67;1.57;;;26.80;53.00;;;;;;5110431;28;20630;-86
2022/06/13 12:05:39;;;;;;;1.80;1.70;;;27.30;52.90;;;;;;5109431;28;21069;-86
2022/06/13 12:08:20;;;;;;;1.57;1.00;;;27.80;49.90;;;;;;5100228;28;21281;-86
2022/06/13 12:10:59;;;;;;;1.10;1.10;;;28.30;48.50;;;;;;5107391;28;20631;-86
2022/06/13 12:13:27;;;;;;;1.20;1.20;;;28.50;50.30;;;;;;5109753;28;20676;-87
2022/06/13 12:16:00;;;;;;;1.67;1.57;;;29.00;48.10;;;;;;5109422;28;20616;-86
2022/06/13 12:18:37;;;;;;;1.53;1.43;;;29.10;50.50;;;;;;5110202;28;20655;-87
2022/06/13 12:21:14;;;;;;;1.10;1.10;;;26.90;50.70;;;;;;5110563;28;20670;-87
2022/06/13 12:23:49;;;;;;;1.23;1.10;;;26.10;53.10;;;;;;5109449;28;20724;-87
2022/06/13 12:26:23;;;;;;;1.33;1.23;;;26.00;51.80;;;;;;5108855;28;20670;-86
2022/06/13 12:28:58;;;;;;;1.60;1.27;;;25.90;51.80;;;;;;5109628;28;20607;-86
2022/06/13 12:31:34;;;;;;;4.63;1.60;;;25.10;50.20;;;;;;5108820;28;20624;-85
2022/06/13 12:34:12;;;;;;;1.20;1.10;;;25.10;54.00;;;;;;5109298;28;20619;-87
2022/06/13 12:36:55;;;;;;;1.60;1.50;;;26.40;50.30;;;;;;5096655;28;20624;-86
2022/06/13 12:39:42;;;;;;;1.13;1.13;;;26.70;47.10;;;;;;5108673;28;20722;-86
2022/06/13 12:42:22;;;;;;;1.50;1.40;;;26.10;50.80;;;;;;5108795;28;20782;-86
2022/06/13 12:45:20;;;;;;;1.50;1.40;;;25.80;53.60;;;;;;5109407;28;20718;-86
2022/06/13 12:48:15;;;;;;;1.57;1.47;;;25.70;52.50;;;;;;5107524;28;20655;-86
2022/06/13 12:50:54;;;;;;;1.57;1.47;;;24.90;52.90;;;;;;5108715;28;20624;-87
2022/06/13 12:53:43;;;;;;;1.27;1.17;;;25.20;54.20;;;;;;5105884;28;20651;-87
2022/06/13 12:56:20;;;;;;;0.90;0.90;;;26.70;53.30;;;;;;5105824;28;20719;-85
2022/06/13 12:59:01;;;;;;;1.17;1.07;;;27.80;48.90;;;;;;5109173;28;20612;-85
2022/06/13 13:01:36;;;;;;;1.77;1.20;;;28.90;50.50;;;;;;5109356;28;20737;-86
2022/06/13 13:04:40;;;;;;;1.27;1.17;;;30.00;47.80;;;;;;5108591;28;20706;-87
2022/06/13 13:07:17;;;;;;;0.93;0.93;;;30.40;47.50;;;;;;5109919;27;20619;-85
2022/06/13 13:10:12;;;;;;;1.30;1.30;;;30.00;47.90;;;;;;5109101;28;20670;-85
2022/06/13 13:13:09;;;;;;;1.17;1.17;;;31.10;46.90;;;;;;5108029;28;21042;-87
2022/06/13 13:15:43;;;;;;;2.50;1.23;;;31.80;46.20;;;;;;5088275;28;21230;-87
2022/06/13 13:18:20;;;;;;;1.67;1.57;;;31.30;45.90;;;;;;5105736;28;20623;-85
2022/06/13 13:20:53;;;;;;;1.13;1.07;;;29.40;44.30;;;;;;5108485;28;20670;-87
2022/06/13 13:23:27;;;;;;;1.23;1.23;;;29.40;44.60;;;;;;5108032;28;20623;-86
2022/06/13 13:26:02;;;;;;;1.17;1.17;;;30.50;45.00;;;;;;5106199;28;21207;-86
2022/06/13 13:28:38;;;;;;;1.33;1.13;;;31.60;43.90;;;;;;5108180;28;20704;-85
2022/06/13 13:31:12;;;;;;;1.10;1.10;;;32.80;43.70;;;;;;5108536;28;20619;-86
2022/06/13 13:34:10;;;;;;;1.07;1.07;;;32.90;40.00;;;;;;5099587;28;20685;-87
2022/06/13 13:36:48;;;;;;;1.13;1.10;;;33.10;44.80;;;;;;5106876;28;21335;-87
2022/06/13 13:39:19;;;;;;;1.70;1.07;;;33.80;41.60;;;;;;5107347;28;20675;-87
2022/06/13 13:41:53;;;;;;;1.10;1.03;;;34.30;39.80;;;;;;5097384;28;20658;-87
2022/06/13 13:44:26;;;;;;;0.70;0.70;;;33.10;40.20;;;;;;5091524;28;20673;-86
2022/06/13 13:46:59;;;;;;;0.80;0.80;;;31.00;40.40;;;;;;5106739;28;20624;-86
2022/06/13 13:49:30;;;;;;;1.10;1.10;;;29.50;41.30;;;;;;5108200;28;20730;-86
2022/06/13 13:52:02;;;;;;;1.40;1.30;;;27.70;45.30;;;;;;5108177;28;20795;-87
2022/06/13 13:54:35;;;;;;;0.93;0.93;;;27.60;47.50;;;;;;5108698;28;20728;-86
2022/06/13 13:57:07;;;;;;;2.17;0.87;;;28.70;44.30;;;;;;5106948;28;20704;-86
2022/06/13 13:59:39;;;;;;;1.10;0.80;;;30.20;43.60;;;;;;5106958;28;20624;-87
2022/06/13 14:02:13;;;;;;;0.70;0.70;;;30.00;42.90;;;;;;5108409;28;20667;-85
2022/06/13 14:04:54;;;;;;;0.70;0.70;;;29.90;40.40;;;;;;5107934;28;21065;-86
2022/06/13 14:07:59;;;;;;;0.97;0.97;;;28.70;42.40;;;;;;5108638;28;20673;-86